createdAt,value
2023-06-10T00:00:16.653Z,7.88
2023-06-10T00:01:50.714Z,6.65
2023-06-10T00:03:24.317Z,5.82
2023-06-10T00:05:01.599Z,5.30
2023-06-10T00:06:35.043Z,8.07
2023-06-10T00:08:08.225Z,10.25
2023-06-10T00:09:42.418Z,6.97
2023-06-10T00:11:24.525Z,6.32
2023-06-10T00:13:01.036Z,6.78
2023-06-10T00:14:40.314Z,7.47
2023-06-10T00:16:15.073Z,11.13
2023-06-10T00:17:52.262Z,10.68
2023-06-10T00:19:27.168Z,6.90
2023-06-10T00:21:00.523Z,5.40
2023-06-10T00:22:33.917Z,6.18
2023-06-10T00:24:09.236Z,6.43
2023-06-10T00:25:42.457Z,6.20
2023-06-10T00:27:15.680Z,7.00
2023-06-10T00:28:50.010Z,12.02
2023-06-10T00:30:23.540Z,7.70
2023-06-10T00:31:57.999Z,10.43
2023-06-10T00:33:32.256Z,7.15
2023-06-10T00:35:07.546Z,9.77
2023-06-10T00:36:41.055Z,7.28
2023-06-10T00:38:15.710Z,8.50
2023-06-10T00:39:50.331Z,16.55
2023-06-10T00:41:30.979Z,7.80
2023-06-10T00:43:04.049Z,8.15
2023-06-10T00:44:47.759Z,6.15
2023-06-10T00:46:22.997Z,6.80
2023-06-10T00:47:57.543Z,7.07
2023-06-10T00:49:30.851Z,8.60
2023-06-10T00:51:09.563Z,6.75
2023-06-10T00:52:44.765Z,9.90
2023-06-10T00:54:19.167Z,9.20
2023-06-10T00:55:52.848Z,8.35
2023-06-10T00:57:27.057Z,7.50
2023-06-10T00:59:00.481Z,10.63
2023-06-10T01:00:35.722Z,8.65
2023-06-10T01:02:11.245Z,7.70
2023-06-10T01:03:46.196Z,6.30
2023-06-10T01:05:23.245Z,7.03
2023-06-10T01:07:33.669Z,9.75
2023-06-10T01:09:35.133Z,7.35
2023-06-10T01:11:20.620Z,7.25
2023-06-10T01:13:00.828Z,8.27
2023-06-10T01:14:33.940Z,7.53
2023-06-10T01:16:07.247Z,7.95
2023-06-10T01:18:00.529Z,8.05
2023-06-10T01:19:37.251Z,9.23
2023-06-10T01:21:20.950Z,7.25
2023-06-10T01:22:55.974Z,11.57
2023-06-10T01:24:30.006Z,5.82
2023-06-10T01:26:11.679Z,7.22
2023-06-10T01:27:50.806Z,8.20
2023-06-10T01:29:37.766Z,6.88
2023-06-10T01:31:49.626Z,7.25
2023-06-10T01:33:40.467Z,8.73
2023-06-10T01:35:14.877Z,8.07
2023-06-10T01:36:50.651Z,8.25
2023-06-10T01:38:28.375Z,7.68
2023-06-10T01:40:03.250Z,7.22
2023-06-10T01:41:37.571Z,7.68
2023-06-10T01:43:10.848Z,11.23
2023-06-10T01:44:47.934Z,8.27
2023-06-10T01:46:21.340Z,8.20
2023-06-10T01:47:55.416Z,5.45
2023-06-10T01:49:28.496Z,10.50
2023-06-10T01:51:02.731Z,6.65
2023-06-10T01:52:37.946Z,16.35
2023-06-10T01:54:12.213Z,6.85
2023-06-10T01:55:45.523Z,11.77
2023-06-10T01:57:19.497Z,10.18
2023-06-10T01:58:52.578Z,11.05
2023-06-10T02:00:25.865Z,6.07
2023-06-10T02:02:00.336Z,8.73
2023-06-10T02:03:33.449Z,9.60
2023-06-10T02:05:07.236Z,12.80
2023-06-10T02:06:41.001Z,9.15
2023-06-10T02:08:15.629Z,10.88
2023-06-10T02:09:48.722Z,8.05
2023-06-10T02:11:24.734Z,8.15
2023-06-10T02:12:58.983Z,8.23
2023-06-10T02:14:38.588Z,9.15
2023-06-10T02:16:13.359Z,8.20
2023-06-10T02:17:48.564Z,11.13
2023-06-10T02:19:26.080Z,10.43
2023-06-10T02:20:59.852Z,8.02
2023-06-10T02:22:33.119Z,8.55
2023-06-10T02:24:07.669Z,6.80
2023-06-10T02:25:44.648Z,8.52
2023-06-10T02:27:23.207Z,7.50
2023-06-10T02:28:57.718Z,7.07
2023-06-10T02:30:34.074Z,5.82
2023-06-10T02:32:11.904Z,9.50
2023-06-10T02:33:51.238Z,11.35
2023-06-10T02:35:26.352Z,6.07
2023-06-10T02:37:04.035Z,8.68
2023-06-10T02:38:41.441Z,10.07
2023-06-10T02:40:21.085Z,8.40
2023-06-10T02:41:57.264Z,7.20
2023-06-10T02:43:31.721Z,10.55
2023-06-10T02:45:10.127Z,9.20
2023-06-10T02:46:45.418Z,5.05
2023-06-10T02:48:28.383Z,10.70
2023-06-10T02:50:09.325Z,10.90
2023-06-10T02:51:47.438Z,5.53
2023-06-10T02:53:20.846Z,7.05
2023-06-10T02:54:56.831Z,6.60
2023-06-10T02:56:34.056Z,10.57
2023-06-10T02:58:07.476Z,6.18
2023-06-10T02:59:41.489Z,6.57
2023-06-10T03:01:21.064Z,10.57
2023-06-10T03:02:54.641Z,7.10
2023-06-10T03:04:30.281Z,8.68
2023-06-10T03:06:10.918Z,8.80
2023-06-10T03:07:47.116Z,8.02
2023-06-10T03:09:26.919Z,9.77
2023-06-10T03:11:00.446Z,8.27
2023-06-10T03:12:35.968Z,9.93
2023-06-10T03:14:15.079Z,5.80
2023-06-10T03:15:52.068Z,8.10
2023-06-10T03:17:29.156Z,9.32
2023-06-10T03:19:05.504Z,7.03
2023-06-10T03:20:39.124Z,6.13
2023-06-10T03:22:25.663Z,7.78
2023-06-10T03:23:59.643Z,5.38
2023-06-10T03:25:35.387Z,8.57
2023-06-10T03:27:11.814Z,7.53
2023-06-10T03:28:48.810Z,7.20
2023-06-10T03:30:28.068Z,8.50
2023-06-10T03:32:07.845Z,9.55
2023-06-10T03:33:44.340Z,8.13
2023-06-10T03:35:17.590Z,4.38
2023-06-10T03:36:51.825Z,16.45
2023-06-10T03:38:31.725Z,7.70
2023-06-10T03:40:06.492Z,6.32
2023-06-10T03:41:40.564Z,11.80
2023-06-10T03:43:16.427Z,12.35
2023-06-10T03:44:57.103Z,11.30
2023-06-10T03:46:40.072Z,7.45
2023-06-10T03:48:14.633Z,7.90
2023-06-10T03:49:49.597Z,9.02
2023-06-10T03:51:28.104Z,8.48
2023-06-10T03:53:02.182Z,13.05
2023-06-10T03:54:36.499Z,5.90
2023-06-10T03:56:10.738Z,6.97
2023-06-10T03:57:46.690Z,9.57
2023-06-10T03:59:20.429Z,8.57
2023-06-10T04:00:56.871Z,7.72
2023-06-10T04:02:33.555Z,7.35
2023-06-10T04:04:11.025Z,6.68
2023-06-10T04:05:46.372Z,10.18
2023-06-10T04:07:27.350Z,12.13
2023-06-10T04:09:05.226Z,5.50
2023-06-10T04:10:40.910Z,8.80
2023-06-10T04:12:18.399Z,8.25
2023-06-10T04:14:01.266Z,5.38
2023-06-10T04:15:34.427Z,7.82
2023-06-10T04:17:10.869Z,4.97
2023-06-10T04:18:45.002Z,11.38
2023-06-10T04:20:20.592Z,9.45
2023-06-10T04:21:56.861Z,6.57
2023-06-10T04:23:30.310Z,7.50
2023-06-10T04:25:05.696Z,6.30
2023-06-10T04:26:39.191Z,10.43
2023-06-10T04:28:12.812Z,6.03
2023-06-10T04:29:49.271Z,5.90
2023-06-10T04:31:23.148Z,6.65
2023-06-10T04:32:59.989Z,5.53
2023-06-10T04:34:34.829Z,6.72
2023-06-10T04:36:10.034Z,14.98
2023-06-10T04:37:44.549Z,12.52
2023-06-10T04:39:21.956Z,10.57
2023-06-10T04:40:59.512Z,7.10
2023-06-10T04:42:33.476Z,6.97
2023-06-10T04:44:10.153Z,10.13
2023-06-10T04:45:43.824Z,7.47
2023-06-10T04:47:22.961Z,4.88
2023-06-10T04:48:57.724Z,4.68
2023-06-10T04:50:32.694Z,6.25
2023-06-10T04:52:08.990Z,5.35
2023-06-10T04:53:45.268Z,6.78
2023-06-10T04:55:18.552Z,5.32
2023-06-10T04:56:55.095Z,9.10
2023-06-10T04:58:30.319Z,5.35
2023-06-10T05:00:05.058Z,6.20
2023-06-10T05:01:44.669Z,7.68
2023-06-10T05:03:22.111Z,4.30
2023-06-10T05:05:00.338Z,5.90
2023-06-10T05:06:36.291Z,4.20
2023-06-10T05:08:12.282Z,3.72
2023-06-10T05:09:45.517Z,5.82
2023-06-10T05:11:18.891Z,4.00
2023-06-10T05:12:52.519Z,6.70
2023-06-10T05:14:28.703Z,3.83
2023-06-10T05:16:05.538Z,5.55
2023-06-10T05:17:46.231Z,5.00
2023-06-10T05:19:21.481Z,5.28
2023-06-10T05:20:59.591Z,5.07
2023-06-10T05:22:32.690Z,6.65
2023-06-10T05:24:07.600Z,4.47
2023-06-10T05:25:43.516Z,4.45
2023-06-10T05:27:19.184Z,4.97
2023-06-10T05:28:57.475Z,4.47
2023-06-10T05:30:37.576Z,3.90
2023-06-10T05:32:15.081Z,4.28
2023-06-10T05:33:48.331Z,4.50
2023-06-10T05:35:24.517Z,4.97
2023-06-10T05:37:00.577Z,4.85
2023-06-10T05:38:37.263Z,4.43
2023-06-10T05:40:11.044Z,3.65
2023-06-10T05:41:46.209Z,4.22
2023-06-10T05:43:23.797Z,4.70
2023-06-10T05:45:02.100Z,7.03
2023-06-10T05:46:38.642Z,5.05
2023-06-10T05:48:11.833Z,3.90
2023-06-10T05:49:45.559Z,3.53
2023-06-10T05:51:23.410Z,4.68
2023-06-10T05:52:56.844Z,3.47
2023-06-10T05:54:33.221Z,3.50
2023-06-10T05:56:10.580Z,3.75
2023-06-10T05:57:45.710Z,3.55
2023-06-10T05:59:23.898Z,3.95
2023-06-10T06:01:00.018Z,3.55
2023-06-10T06:02:33.381Z,4.70
2023-06-10T06:04:15.175Z,6.45
2023-06-10T06:05:51.562Z,3.85
2023-06-10T06:07:32.528Z,7.07
2023-06-10T06:09:08.599Z,5.25
2023-06-10T06:10:41.953Z,4.40
2023-06-10T06:12:17.586Z,3.35
2023-06-10T06:13:57.318Z,4.30
2023-06-10T06:15:32.965Z,4.97
2023-06-10T06:17:08.114Z,4.93
2023-06-10T06:18:45.006Z,3.42
2023-06-10T06:20:29.637Z,4.55
2023-06-10T06:22:05.045Z,6.85
2023-06-10T06:23:49.798Z,7.65
2023-06-10T06:25:25.674Z,7.05
2023-06-10T06:26:58.950Z,2.65
2023-06-10T06:28:32.669Z,4.25
2023-06-10T06:30:07.484Z,5.00
2023-06-10T06:31:45.657Z,4.57
2023-06-10T06:33:19.955Z,4.78
2023-06-10T06:34:56.256Z,4.05
2023-06-10T06:36:32.697Z,2.42
2023-06-10T06:38:16.041Z,4.78
2023-06-10T06:39:49.780Z,5.05
2023-06-10T06:41:24.839Z,5.03
2023-06-10T06:43:00.637Z,5.82
2023-06-10T06:44:39.199Z,3.05
2023-06-10T06:46:13.781Z,3.95
2023-06-10T06:47:54.169Z,4.68
2023-06-10T06:49:28.338Z,4.80
2023-06-10T06:51:06.933Z,6.50
2023-06-10T06:52:43.199Z,7.43
2023-06-10T06:54:17.805Z,5.78
2023-06-10T06:55:53.452Z,4.78
2023-06-10T06:57:27.058Z,6.40
2023-06-10T06:59:01.539Z,3.25
2023-06-10T07:00:36.283Z,4.20
2023-06-10T07:02:09.893Z,5.78
2023-06-10T07:03:46.148Z,4.00
2023-06-10T07:05:24.967Z,4.43
2023-06-10T07:06:58.096Z,4.57
2023-06-10T07:08:32.711Z,4.53
2023-06-10T07:10:08.183Z,2.72
2023-06-10T07:11:42.427Z,3.40
2023-06-10T07:13:16.232Z,2.58
2023-06-10T07:14:49.700Z,4.78
2023-06-10T07:16:25.543Z,6.28
2023-06-10T07:18:04.296Z,5.00
2023-06-10T07:19:43.049Z,8.15
2023-06-10T07:21:20.987Z,3.80
2023-06-10T07:22:55.486Z,6.38
2023-06-10T07:24:30.670Z,3.97
2023-06-10T07:26:04.100Z,5.05
2023-06-10T07:27:50.827Z,4.53
2023-06-10T07:29:24.237Z,3.35
2023-06-10T07:30:59.646Z,5.93
2023-06-10T07:32:38.894Z,5.35
2023-06-10T07:34:12.118Z,6.25
2023-06-10T07:35:49.496Z,2.70
2023-06-10T07:37:31.025Z,3.70
2023-06-10T07:39:16.704Z,2.90
2023-06-10T07:40:58.546Z,2.72
2023-06-10T07:42:42.428Z,3.00
2023-06-10T07:44:20.834Z,3.45
2023-06-10T07:46:03.990Z,4.25
2023-06-10T07:47:49.067Z,3.55
2023-06-10T07:49:23.119Z,3.78
2023-06-10T07:50:56.612Z,4.30
2023-06-10T07:52:29.933Z,3.67
2023-06-10T07:54:03.233Z,3.17
2023-06-10T07:55:36.606Z,3.20
2023-06-10T07:57:09.778Z,5.28
2023-06-10T07:58:43.006Z,4.28
2023-06-10T08:00:16.849Z,4.53
2023-06-10T08:01:50.401Z,3.33
2023-06-10T08:03:23.865Z,3.92
2023-06-10T08:04:57.112Z,4.22
2023-06-10T08:06:30.959Z,4.35
2023-06-10T08:08:04.443Z,3.00
2023-06-10T08:09:38.312Z,6.85
2023-06-10T08:11:15.648Z,3.80
2023-06-10T08:12:49.835Z,4.10
2023-06-10T08:14:23.399Z,6.53
2023-06-10T08:15:56.986Z,5.60
2023-06-10T08:17:30.405Z,3.63
2023-06-10T08:19:04.005Z,3.97
2023-06-10T08:20:38.998Z,3.47
2023-06-10T08:22:12.200Z,3.63
2023-06-10T08:23:49.803Z,3.58
2023-06-10T08:25:26.529Z,2.90
2023-06-10T08:27:02.593Z,3.53
2023-06-10T08:28:37.184Z,3.70
2023-06-10T08:30:11.184Z,3.33
2023-06-10T08:31:46.043Z,7.18
2023-06-10T08:33:19.277Z,3.05
2023-06-10T08:34:53.326Z,9.38
2023-06-10T08:36:26.899Z,3.78
2023-06-10T08:38:00.103Z,4.78
2023-06-10T08:39:34.490Z,7.90
2023-06-10T08:41:10.763Z,2.47
2023-06-10T08:43:11.768Z,3.78
2023-06-10T08:44:47.546Z,7.38
2023-06-10T08:46:21.829Z,2.72
2023-06-10T08:47:58.914Z,4.38
2023-06-10T08:49:39.050Z,3.83
2023-06-10T08:51:13.248Z,3.05
2023-06-10T08:52:51.417Z,4.93
2023-06-10T08:54:31.246Z,3.55
2023-06-10T08:56:06.734Z,3.88
2023-06-10T08:57:42.377Z,2.60
2023-06-10T08:59:17.124Z,6.57
2023-06-10T09:00:51.771Z,4.15
2023-06-10T09:02:28.838Z,3.05
2023-06-10T09:04:04.138Z,3.88
2023-06-10T09:05:38.169Z,4.50
2023-06-10T09:07:12.930Z,4.28
2023-06-10T09:08:46.257Z,4.13
2023-06-10T09:10:20.284Z,2.88
2023-06-10T09:11:53.633Z,6.38
2023-06-10T09:13:27.282Z,2.60
2023-06-10T09:15:02.970Z,4.15
2023-06-10T09:16:39.320Z,3.45
2023-06-10T09:18:13.696Z,4.30
2023-06-10T09:19:49.172Z,2.90
2023-06-10T09:21:26.487Z,3.92
2023-06-10T09:23:02.465Z,3.03
2023-06-10T09:24:36.179Z,4.13
2023-06-10T09:26:12.482Z,8.82
2023-06-10T09:27:53.093Z,14.88
2023-06-10T09:29:26.734Z,2.58
2023-06-10T09:31:07.433Z,4.57
2023-06-10T09:32:41.273Z,2.20
2023-06-10T09:34:16.480Z,2.60
2023-06-10T09:35:51.180Z,5.82
2023-06-10T09:37:25.462Z,2.42
2023-06-10T09:38:59.324Z,4.38
2023-06-10T09:40:32.967Z,4.60
2023-06-10T09:42:20.245Z,3.95
2023-06-10T09:43:54.432Z,2.30
2023-06-10T09:45:34.330Z,4.30
2023-06-10T09:47:07.823Z,4.32
2023-06-10T09:48:49.017Z,3.05
2023-06-10T09:50:22.648Z,3.28
2023-06-10T09:51:56.947Z,3.75
2023-06-10T09:53:35.665Z,3.88
2023-06-10T09:55:10.870Z,2.40
2023-06-10T09:56:44.407Z,8.05
2023-06-10T09:58:17.728Z,3.33
2023-06-10T09:59:55.486Z,2.67
2023-06-10T10:01:29.646Z,2.75
2023-06-10T10:03:03.410Z,3.63
2023-06-10T10:04:37.726Z,3.13
2023-06-10T10:06:14.549Z,4.15
2023-06-10T10:07:48.486Z,2.97
2023-06-10T10:09:21.979Z,4.70
2023-06-10T10:10:58.991Z,2.58
2023-06-10T10:12:33.683Z,2.75
2023-06-10T10:14:10.709Z,4.80
2023-06-10T10:15:46.830Z,2.28
2023-06-10T10:17:22.502Z,2.90
2023-06-10T10:19:02.805Z,2.58
2023-06-10T10:20:46.700Z,4.05
2023-06-10T10:22:40.725Z,2.78
2023-06-10T10:24:31.813Z,2.45
2023-06-10T10:26:15.138Z,2.20
2023-06-10T10:28:07.518Z,4.38
2023-06-10T10:29:45.824Z,2.55
2023-06-10T10:31:26.871Z,2.47
2023-06-10T10:33:18.169Z,2.67
2023-06-10T10:35:18.684Z,3.85
2023-06-10T10:36:56.232Z,1.77
2023-06-10T10:38:31.664Z,2.65
2023-06-10T10:40:10.526Z,2.65
2023-06-10T10:41:45.423Z,3.10
2023-06-10T10:43:22.249Z,2.35
2023-06-10T10:44:56.648Z,3.15
2023-06-10T10:46:31.089Z,3.78
2023-06-10T10:48:10.725Z,4.35
2023-06-10T10:49:47.486Z,2.42
2023-06-10T10:51:21.109Z,2.65
2023-06-10T10:53:02.604Z,3.80
2023-06-10T10:54:37.788Z,3.53
2023-06-10T10:56:18.867Z,4.03
2023-06-10T10:57:59.576Z,3.72
2023-06-10T10:59:57.256Z,3.50
2023-06-10T11:01:46.741Z,4.90
2023-06-10T11:03:20.414Z,4.07
2023-06-10T11:04:58.907Z,2.90
2023-06-10T11:06:32.887Z,2.13
2023-06-10T11:08:07.151Z,2.58
2023-06-10T11:10:00.195Z,2.28
2023-06-10T11:11:52.034Z,4.63
2023-06-10T11:13:28.535Z,2.40
2023-06-10T11:15:01.711Z,4.03
2023-06-10T11:16:43.297Z,5.20
2023-06-10T11:18:26.044Z,3.22
2023-06-10T11:20:00.730Z,2.53
2023-06-10T11:21:58.355Z,2.65
2023-06-10T11:23:35.272Z,2.13
2023-06-10T11:25:15.679Z,2.17
2023-06-10T11:26:49.026Z,3.97
2023-06-10T11:28:28.982Z,4.18
2023-06-10T11:30:02.448Z,2.55
2023-06-10T11:31:52.808Z,2.13
2023-06-10T11:33:26.366Z,2.03
2023-06-10T11:34:59.933Z,3.67
2023-06-10T11:36:44.709Z,4.65
2023-06-10T11:38:20.594Z,2.47
2023-06-10T11:39:56.668Z,2.63
2023-06-10T11:41:31.451Z,2.35
2023-06-10T11:43:05.977Z,2.20
2023-06-10T11:44:39.359Z,2.15
2023-06-10T11:46:13.661Z,2.83
2023-06-10T11:48:03.159Z,2.65
2023-06-10T11:49:36.572Z,5.15
2023-06-10T11:51:10.259Z,2.00
2023-06-10T11:52:43.706Z,3.10
2023-06-10T11:54:16.876Z,2.13
2023-06-10T11:55:52.516Z,2.17
2023-06-10T11:57:26.003Z,3.17
2023-06-10T11:59:06.114Z,2.33
2023-06-10T12:00:53.888Z,3.00
2023-06-10T12:02:27.122Z,2.85
2023-06-10T12:04:02.669Z,2.78
2023-06-10T12:05:36.905Z,1.58
2023-06-10T12:07:17.873Z,2.03
2023-06-10T12:08:51.584Z,2.60
2023-06-10T12:10:27.587Z,3.70
2023-06-10T12:12:07.171Z,12.18
2023-06-10T12:13:51.066Z,1.63
2023-06-10T12:15:27.152Z,2.13
2023-06-10T12:17:00.707Z,5.65
2023-06-10T12:18:34.050Z,5.15
2023-06-10T12:20:27.102Z,2.03
2023-06-10T12:22:02.408Z,2.03
2023-06-10T12:23:35.698Z,1.60
2023-06-10T12:25:11.255Z,1.83
2023-06-10T12:26:46.226Z,1.45
2023-06-10T12:28:23.982Z,3.25
2023-06-10T12:30:02.020Z,2.15
2023-06-10T12:31:54.973Z,1.77
2023-06-10T12:33:28.156Z,2.95
2023-06-10T12:35:06.491Z,3.47
2023-06-10T12:36:55.359Z,1.63
2023-06-10T12:38:28.953Z,2.70
2023-06-10T12:40:11.470Z,3.65
2023-06-10T12:41:53.408Z,4.22
2023-06-10T12:43:27.543Z,1.45
2023-06-10T12:45:01.220Z,2.50
2023-06-10T12:46:41.145Z,3.70
2023-06-10T12:48:21.615Z,1.85
2023-06-10T12:49:55.435Z,4.50
2023-06-10T12:51:29.177Z,1.95
2023-06-10T12:53:06.856Z,2.40
2023-06-10T12:54:44.341Z,2.70
2023-06-10T12:56:18.064Z,4.05
2023-06-10T12:57:52.580Z,1.63
2023-06-10T12:59:27.580Z,1.50
2023-06-10T13:01:00.869Z,1.95
2023-06-10T13:02:34.380Z,2.47
2023-06-10T13:04:07.896Z,1.92
2023-06-10T13:05:42.054Z,5.53
2023-06-10T13:07:17.295Z,3.85
2023-06-10T13:08:50.801Z,2.30
2023-06-10T13:10:25.885Z,4.10
2023-06-10T13:12:03.023Z,2.10
2023-06-10T13:13:38.583Z,2.17
2023-06-10T13:15:12.431Z,2.75
2023-06-10T13:16:46.401Z,4.80
2023-06-10T13:18:25.365Z,1.90
2023-06-10T13:19:59.473Z,6.25
2023-06-10T13:21:35.145Z,1.52
2023-06-10T13:23:10.321Z,3.40
2023-06-10T13:24:47.060Z,1.35
2023-06-10T13:26:20.744Z,1.75
2023-06-10T13:27:55.944Z,1.48
2023-06-10T13:29:29.216Z,1.63
2023-06-10T13:31:07.796Z,1.63
2023-06-10T13:32:42.119Z,2.38
2023-06-10T13:34:17.709Z,2.35
2023-06-10T13:35:51.800Z,2.63
2023-06-10T13:37:26.201Z,1.77
2023-06-10T13:39:00.120Z,2.15
2023-06-10T13:40:33.454Z,2.70
2023-06-10T13:42:11.490Z,1.40
2023-06-10T13:43:46.556Z,1.85
2023-06-10T13:45:19.944Z,2.55
2023-06-10T13:46:53.489Z,3.80
2023-06-10T13:48:27.049Z,1.83
2023-06-10T13:50:03.589Z,1.35
2023-06-10T13:51:40.352Z,1.88
2023-06-10T13:53:15.743Z,2.50
2023-06-10T13:54:49.084Z,1.60
2023-06-10T13:56:23.787Z,1.30
2023-06-10T13:57:57.286Z,1.30
2023-06-10T13:59:30.697Z,3.33
2023-06-10T14:01:04.442Z,2.50
2023-06-10T14:02:38.710Z,1.90
2023-06-10T14:04:13.044Z,1.55
2023-06-10T14:05:46.873Z,2.22
2023-06-10T14:07:20.585Z,1.90
2023-06-10T14:08:53.682Z,1.55
2023-06-10T14:10:27.091Z,5.82
2023-06-10T14:12:00.429Z,1.50
2023-06-10T14:13:38.308Z,1.50
2023-06-10T14:15:14.989Z,2.15
2023-06-10T14:16:51.363Z,2.97
2023-06-10T14:18:28.148Z,1.75
2023-06-10T14:20:01.514Z,3.35
2023-06-10T14:21:35.272Z,1.35
2023-06-10T14:23:09.221Z,3.05
2023-06-10T14:24:42.626Z,2.45
2023-06-10T14:26:16.647Z,5.00
2023-06-10T14:27:50.235Z,4.82
2023-06-10T14:29:23.546Z,3.55
2023-06-10T14:30:58.326Z,4.65
2023-06-10T14:32:31.935Z,1.02
2023-06-10T14:34:05.873Z,1.15
2023-06-10T14:35:39.137Z,1.98
2023-06-10T14:37:12.667Z,1.60
2023-06-10T14:38:46.265Z,1.58
2023-06-10T14:40:19.610Z,2.60
2023-06-10T14:41:57.205Z,1.30
2023-06-10T14:43:30.760Z,1.58
2023-06-10T14:45:06.336Z,1.27
2023-06-10T14:46:41.282Z,2.28
2023-06-10T14:48:14.779Z,5.28
2023-06-10T14:49:48.312Z,2.35
2023-06-10T14:51:21.722Z,2.95
2023-06-10T14:52:55.105Z,1.30
2023-06-10T14:54:28.707Z,8.15
2023-06-10T14:56:06.223Z,1.50
2023-06-10T14:57:40.189Z,1.75
2023-06-10T14:59:13.442Z,0.90
2023-06-10T15:00:49.944Z,2.08
2023-06-10T15:02:24.320Z,2.78
2023-06-10T15:03:57.769Z,3.28
2023-06-10T15:05:30.984Z,5.13
2023-06-10T15:07:05.497Z,2.05
2023-06-10T15:08:38.723Z,1.73
2023-06-10T15:10:12.317Z,1.52
2023-06-10T15:11:45.817Z,3.60
2023-06-10T15:13:19.121Z,1.92
2023-06-10T15:14:52.590Z,1.95
2023-06-10T15:16:26.035Z,1.90
2023-06-10T15:18:00.455Z,1.42
2023-06-10T15:19:33.885Z,1.48
2023-06-10T15:21:07.699Z,0.90
2023-06-10T15:22:41.352Z,1.40
2023-06-10T15:24:15.076Z,1.17
2023-06-10T15:25:48.273Z,1.50
2023-06-10T15:27:25.273Z,2.15
2023-06-10T15:28:58.808Z,2.30
2023-06-10T15:30:32.622Z,1.73
2023-06-10T15:32:07.220Z,1.10
2023-06-10T15:33:41.492Z,1.02
2023-06-10T15:35:19.440Z,2.60
2023-06-10T15:36:53.208Z,1.20
2023-06-10T15:38:26.607Z,1.92
2023-06-10T15:40:04.355Z,1.00
2023-06-10T15:41:38.115Z,2.65
2023-06-10T15:43:11.586Z,2.25
2023-06-10T15:44:44.951Z,1.33
2023-06-10T15:46:18.557Z,0.80
2023-06-10T15:47:52.497Z,1.17
2023-06-10T15:49:30.364Z,1.38
2023-06-10T15:51:07.696Z,1.48
2023-06-10T15:52:44.254Z,1.52
2023-06-10T15:54:21.376Z,8.48
2023-06-10T15:55:58.350Z,2.67
2023-06-10T15:57:37.655Z,1.42
2023-06-10T15:59:17.100Z,2.35
2023-06-10T16:00:50.723Z,1.40
2023-06-10T16:02:24.179Z,3.63
2023-06-10T16:03:58.132Z,1.73
2023-06-10T16:05:33.284Z,3.28
2023-06-10T16:07:08.658Z,2.42
2023-06-10T16:08:45.123Z,1.23
2023-06-10T16:10:19.004Z,1.75
2023-06-10T16:11:53.829Z,1.35
2023-06-10T16:13:29.852Z,1.20
2023-06-10T16:15:06.043Z,2.53
2023-06-10T16:16:42.894Z,1.13
2023-06-10T16:18:21.151Z,1.63
2023-06-10T16:19:55.997Z,1.50
2023-06-10T16:21:37.916Z,3.70
2023-06-10T16:23:11.307Z,4.30
2023-06-10T16:24:46.492Z,4.50
2023-06-10T16:26:22.285Z,2.33
2023-06-10T16:27:55.658Z,3.10
2023-06-10T16:29:32.289Z,3.60
2023-06-10T16:31:05.652Z,2.75
2023-06-10T16:32:40.992Z,4.50
2023-06-10T16:34:17.583Z,2.00
2023-06-10T16:35:53.682Z,1.70
2023-06-10T16:37:27.852Z,1.70
2023-06-10T16:39:09.769Z,1.92
2023-06-10T16:40:43.290Z,1.52
2023-06-10T16:42:16.805Z,3.58
2023-06-10T16:43:50.849Z,4.60
2023-06-10T16:45:24.102Z,2.55
2023-06-10T16:47:01.102Z,2.70
2023-06-10T16:48:35.344Z,4.55
2023-06-10T16:50:11.960Z,3.22
2023-06-10T16:51:46.630Z,3.97
2023-06-10T16:53:21.358Z,2.28
2023-06-10T16:54:54.579Z,2.72
2023-06-10T16:56:31.455Z,3.22
2023-06-10T16:58:06.097Z,1.75
2023-06-10T16:59:42.875Z,2.97
2023-06-10T17:01:22.040Z,1.27
2023-06-10T17:02:56.991Z,1.90
2023-06-10T17:04:31.348Z,4.80
2023-06-10T17:06:04.971Z,2.80
2023-06-10T17:07:41.073Z,2.13
2023-06-10T17:09:14.787Z,3.38
2023-06-10T17:10:49.263Z,1.85
2023-06-10T17:12:25.857Z,1.95
2023-06-10T17:14:02.514Z,1.90
2023-06-10T17:15:44.791Z,1.50
2023-06-10T17:17:18.147Z,2.63
2023-06-10T17:18:54.195Z,4.03
2023-06-10T17:20:31.274Z,2.05
2023-06-10T17:22:05.976Z,3.60
2023-06-10T17:23:42.150Z,1.58
2023-06-10T17:25:15.462Z,1.33
2023-06-10T17:26:50.034Z,1.90
2023-06-10T17:28:24.631Z,2.72
2023-06-10T17:30:01.651Z,3.13
2023-06-10T17:31:38.996Z,1.55
2023-06-10T17:33:12.577Z,3.63
2023-06-10T17:34:52.329Z,4.00
2023-06-10T17:36:28.414Z,2.10
2023-06-10T17:38:06.678Z,1.90
2023-06-10T17:39:40.992Z,1.98
2023-06-10T17:41:14.315Z,2.00
2023-06-10T17:42:52.490Z,1.60
2023-06-10T17:44:29.976Z,1.95
2023-06-10T17:46:04.222Z,2.10
2023-06-10T17:47:39.368Z,2.47
2023-06-10T17:49:13.035Z,1.48
2023-06-10T17:50:47.009Z,1.58
2023-06-10T17:52:21.224Z,4.63
2023-06-10T17:53:54.714Z,2.65
2023-06-10T17:55:28.192Z,2.72
2023-06-10T17:57:01.608Z,3.15
2023-06-10T17:58:34.825Z,2.00
2023-06-10T18:00:10.103Z,5.65
2023-06-10T18:01:43.495Z,1.85
2023-06-10T18:03:23.102Z,2.05
2023-06-10T18:04:57.413Z,1.98
2023-06-10T18:06:37.767Z,2.13
2023-06-10T18:08:14.408Z,1.77
2023-06-10T18:09:48.817Z,1.77
2023-06-10T18:11:26.897Z,2.35
2023-06-10T18:13:00.679Z,2.97
2023-06-10T18:14:36.957Z,2.20
2023-06-10T18:16:10.924Z,2.95
2023-06-10T18:17:44.886Z,2.13
2023-06-10T18:19:19.495Z,2.13
2023-06-10T18:21:01.192Z,2.13
2023-06-10T18:22:37.062Z,3.10
2023-06-10T18:24:23.955Z,2.80
2023-06-10T18:25:59.478Z,2.33
2023-06-10T18:27:37.103Z,2.38
2023-06-10T18:29:11.672Z,2.13
2023-06-10T18:30:51.048Z,3.20
2023-06-10T18:32:26.762Z,5.13
2023-06-10T18:34:04.472Z,3.08
2023-06-10T18:35:43.964Z,4.38
2023-06-10T18:37:18.053Z,2.70
2023-06-10T18:38:54.652Z,2.90
2023-06-10T18:40:31.764Z,5.55
2023-06-10T18:42:11.897Z,2.85
2023-06-10T18:43:45.489Z,3.97
2023-06-10T18:45:23.548Z,1.63
2023-06-10T18:46:59.348Z,4.13
2023-06-10T18:48:33.608Z,2.92
2023-06-10T18:50:11.117Z,1.40
2023-06-10T18:51:44.526Z,3.55
2023-06-10T18:53:20.723Z,3.60
2023-06-10T18:54:57.391Z,4.85
2023-06-10T18:56:31.100Z,4.97
2023-06-10T18:58:05.533Z,3.55
2023-06-10T18:59:43.872Z,2.50
2023-06-10T19:01:18.050Z,2.13
2023-06-10T19:02:53.180Z,1.75
2023-06-10T19:04:29.364Z,2.60
2023-06-10T19:06:02.576Z,3.75
2023-06-10T19:07:36.698Z,2.95
2023-06-10T19:09:10.229Z,5.25
2023-06-10T19:10:46.389Z,4.30
2023-06-10T19:12:21.827Z,3.40
2023-06-10T19:13:54.936Z,3.33
2023-06-10T19:15:30.607Z,3.95
2023-06-10T19:17:07.439Z,3.97
2023-06-10T19:18:41.162Z,2.67
2023-06-10T19:20:14.773Z,2.25
2023-06-10T19:21:48.642Z,2.00
2023-06-10T19:23:23.028Z,3.58
2023-06-10T19:25:07.349Z,3.75
2023-06-10T19:26:42.895Z,6.80
2023-06-10T19:28:16.671Z,2.67
2023-06-10T19:29:56.107Z,2.63
2023-06-10T19:31:35.944Z,2.35
2023-06-10T19:33:11.909Z,2.00
2023-06-10T19:34:50.498Z,3.88
2023-06-10T19:36:24.801Z,2.20
2023-06-10T19:37:58.356Z,2.55
2023-06-10T19:39:33.050Z,5.03
2023-06-10T19:41:06.162Z,2.00
2023-06-10T19:42:40.571Z,6.63
2023-06-10T19:44:15.177Z,2.75
2023-06-10T19:45:48.908Z,3.30
2023-06-10T19:47:24.131Z,2.97
2023-06-10T19:48:57.498Z,3.63
2023-06-10T19:50:31.686Z,3.13
2023-06-10T19:52:08.163Z,3.80
2023-06-10T19:53:41.653Z,2.75
2023-06-10T19:55:20.829Z,2.88
2023-06-10T19:56:54.386Z,2.60
2023-06-10T19:58:27.815Z,2.47
2023-06-10T20:00:01.278Z,2.45
2023-06-10T20:01:37.746Z,2.90
2023-06-10T20:03:12.638Z,2.47
2023-06-10T20:04:46.102Z,3.33
2023-06-10T20:06:19.343Z,2.97
2023-06-10T20:07:52.872Z,2.28
2023-06-10T20:09:28.994Z,2.67
2023-06-10T20:11:04.896Z,3.78
2023-06-10T20:12:38.169Z,4.00
2023-06-10T20:14:11.955Z,4.43
2023-06-10T20:15:45.947Z,2.40
2023-06-10T20:17:19.923Z,3.33
2023-06-10T20:18:53.422Z,4.32
2023-06-10T20:20:26.998Z,3.38
2023-06-10T20:22:00.410Z,5.43
2023-06-10T20:23:38.934Z,4.43
2023-06-10T20:25:15.276Z,3.55
2023-06-10T20:26:49.204Z,2.80
2023-06-10T20:28:22.678Z,3.88
2023-06-10T20:29:57.426Z,3.92
2023-06-10T20:31:31.610Z,5.80
2023-06-10T20:33:07.136Z,3.10
2023-06-10T20:34:43.751Z,2.65
2023-06-10T20:36:22.408Z,2.90
2023-06-10T20:37:56.245Z,5.53
2023-06-10T20:39:29.658Z,2.22
2023-06-10T20:41:03.777Z,4.10
2023-06-10T20:42:39.611Z,4.00
2023-06-10T20:44:13.533Z,3.03
2023-06-10T20:45:50.284Z,3.25
2023-06-10T20:47:27.350Z,4.38
2023-06-10T20:49:04.948Z,2.20
2023-06-10T20:50:40.593Z,3.20
2023-06-10T20:52:16.506Z,3.38
2023-06-10T20:53:51.932Z,2.78
2023-06-10T20:55:27.775Z,3.13
2023-06-10T20:57:01.097Z,3.28
2023-06-10T20:58:34.547Z,4.13
2023-06-10T21:00:08.578Z,3.15
2023-06-10T21:01:44.307Z,3.60
2023-06-10T21:03:18.766Z,3.20
2023-06-10T21:04:52.094Z,3.92
2023-06-10T21:06:25.426Z,3.15
2023-06-10T21:07:58.606Z,3.05
2023-06-10T21:09:35.025Z,3.30
2023-06-10T21:11:09.250Z,6.53
2023-06-10T21:12:42.411Z,3.22
2023-06-10T21:14:15.604Z,3.03
2023-06-10T21:15:48.878Z,4.03
2023-06-10T21:17:22.387Z,4.60
2023-06-10T21:18:57.765Z,4.63